SVBC/BLA METAR and TAF weather

Enter ICAO airport designator
Station Type Date Time Source
SVBC METAR 2022/12/08 11:03 UTC NOAA

SVBC 081103Z AUTO 13001KT NCD 22/20 Q1013


Station Type Date Time Source
SVBC Decoded METAR 2022/12/08 11:03 UTC NOAA

Barcelona, Venezuela (SVBC) 10-07N 064-41W 7M
Dec 08, 2022 - 06:03 AM EST / 2022.12.08 1103 UTC
Wind: from the SE (130 degrees) at 1 MPH (1 KT):0
Temperature: 71 F (22 C)
Dew Point: 68 F (20 C)
Relative Humidity: 88%
Pressure (altimeter): 29.91 in. Hg (1013 hPa)
ob: SVBC 081103Z AUTO 13001KT NCD 22/20 Q1013
cycle: 11

Station Type Date Time Source
SVBC TAF 2022/12/08 12:03 UTC NOAA

TAF TAF SVBC 081000Z 0812/0912 07003KT 9999 BKN060 TX33/0818Z TN22/0907Z
BECMG 0817/0822 06003KT 9999 SCT016

Example: see airport list